createdAt,value
2018-12-01T00:00:34.493Z,90.50
2018-12-01T00:03:02.084Z,90.50
2018-12-01T00:05:29.617Z,90.40
2018-12-01T00:07:58.066Z,90.30
2018-12-01T00:10:25.628Z,90.40
2018-12-01T00:12:53.149Z,90.30
2018-12-01T00:15:24.176Z,90.30
2018-12-01T00:17:51.998Z,90.60
2018-12-01T00:20:23.620Z,90.40
2018-12-01T00:22:51.138Z,90.50
2018-12-01T00:25:18.714Z,90.50
2018-12-01T00:27:46.182Z,90.60
2018-12-01T00:30:15.588Z,90.70
2018-12-01T00:32:43.665Z,90.70
2018-12-01T00:35:11.872Z,90.70
2018-12-01T00:37:39.324Z,90.80
2018-12-01T00:40:09.108Z,90.80
2018-12-01T00:42:36.609Z,90.90
2018-12-01T00:45:05.665Z,90.90
2018-12-01T00:47:33.107Z,90.90
2018-12-01T00:50:00.617Z,91.00
2018-12-01T00:52:28.079Z,91.10
2018-12-01T00:54:55.556Z,91.20
2018-12-01T00:57:23.123Z,91.30
2018-12-01T00:59:50.629Z,91.40
2018-12-01T01:02:23.855Z,91.50
2018-12-01T01:04:51.377Z,91.50
2018-12-01T01:07:18.872Z,91.50
2018-12-01T01:09:46.418Z,91.60
2018-12-01T01:12:13.960Z,91.60
2018-12-01T01:14:41.458Z,91.70
2018-12-01T01:17:08.976Z,91.70
2018-12-01T01:19:36.469Z,91.70
2018-12-01T01:22:04.024Z,91.70
2018-12-01T01:24:31.469Z,91.70
2018-12-01T01:26:58.931Z,91.80
2018-12-01T01:29:26.476Z,91.80
2018-12-01T01:31:54.072Z,91.80
2018-12-01T01:34:21.623Z,91.80
2018-12-01T01:36:49.096Z,91.80
2018-12-01T01:39:16.704Z,91.80
2018-12-01T01:41:44.184Z,91.80
2018-12-01T01:44:11.654Z,91.80
2018-12-01T01:46:39.124Z,91.80
2018-12-01T01:49:06.650Z,91.80
2018-12-01T01:51:34.204Z,91.80
2018-12-01T01:54:01.648Z,91.80
2018-12-01T01:56:29.336Z,91.70
2018-12-01T01:58:56.926Z,91.70
2018-12-01T02:01:24.383Z,91.70
2018-12-01T02:03:51.839Z,91.60
2018-12-01T02:06:19.327Z,91.60
2018-12-01T02:08:46.806Z,91.70
2018-12-01T02:11:14.311Z,91.70
2018-12-01T02:13:41.884Z,91.70
2018-12-01T02:16:09.359Z,91.70
2018-12-01T02:18:36.845Z,91.70
2018-12-01T02:21:05.263Z,91.70
2018-12-01T02:23:32.724Z,91.70
2018-12-01T02:26:00.202Z,92.10
2018-12-01T02:28:27.689Z,91.80
2018-12-01T02:30:55.261Z,91.80
2018-12-01T02:33:22.762Z,91.80
2018-12-01T02:35:50.242Z,91.90
2018-12-01T02:38:17.780Z,91.90
2018-12-01T02:40:45.281Z,92.00
2018-12-01T02:43:12.811Z,92.00
2018-12-01T02:46:54.544Z,92.10
2018-12-01T02:49:22.041Z,92.10
2018-12-01T02:51:49.555Z,92.10
2018-12-01T02:54:17.258Z,92.20
2018-12-01T02:56:44.752Z,92.30
2018-12-01T02:59:12.291Z,92.30
2018-12-01T03:01:39.805Z,92.40
2018-12-01T03:04:07.290Z,92.40
2018-12-01T03:06:34.810Z,92.40
2018-12-01T03:09:02.359Z,92.40
2018-12-01T03:11:29.989Z,92.50
2018-12-01T03:13:57.528Z,92.50
2018-12-01T03:16:25.038Z,92.60
2018-12-01T03:18:52.527Z,92.60
2018-12-01T03:21:20.038Z,92.70
2018-12-01T03:23:47.456Z,92.70
2018-12-01T03:26:21.962Z,92.90
2018-12-01T03:28:49.434Z,92.70
2018-12-01T03:31:16.916Z,92.70
2018-12-01T03:33:44.424Z,92.80
2018-12-01T03:36:11.927Z,92.80
2018-12-01T03:38:39.409Z,92.80
2018-12-01T03:41:07.031Z,92.90
2018-12-01T03:43:34.527Z,93.00
2018-12-01T03:46:01.973Z,93.00
2018-12-01T03:48:29.460Z,93.30
2018-12-01T03:50:56.911Z,93.20
2018-12-01T03:53:24.420Z,93.20
2018-12-01T03:55:51.918Z,93.20
2018-12-01T03:58:19.447Z,93.30
2018-12-01T04:00:46.950Z,93.30
2018-12-01T04:03:14.411Z,93.30
2018-12-01T04:05:41.994Z,93.30
2018-12-01T04:08:09.452Z,93.30
2018-12-01T04:10:36.910Z,93.30
2018-12-01T04:13:04.700Z,93.30
2018-12-01T04:15:32.226Z,93.30
2018-12-01T04:17:59.712Z,93.30
2018-12-01T04:20:27.216Z,93.30
2018-12-01T04:22:54.744Z,93.40
2018-12-01T04:25:22.286Z,93.40
2018-12-01T04:27:49.768Z,93.40
2018-12-01T04:30:20.087Z,93.40
2018-12-01T04:32:47.730Z,93.30
2018-12-01T04:35:15.265Z,93.30
2018-12-01T04:37:42.851Z,93.30
2018-12-01T04:40:10.383Z,93.30
2018-12-01T04:42:37.936Z,93.30
2018-12-01T04:45:06.447Z,93.30
2018-12-01T04:47:33.926Z,93.30
2018-12-01T04:50:01.424Z,93.30
2018-12-01T04:52:28.908Z,93.30
2018-12-01T04:54:56.406Z,93.30
2018-12-01T04:57:23.998Z,93.40
2018-12-01T04:59:51.564Z,93.40
2018-12-01T05:02:19.040Z,93.50
2018-12-01T05:04:46.522Z,93.50
2018-12-01T05:07:19.378Z,93.50
2018-12-01T05:09:48.172Z,93.50
2018-12-01T05:12:15.718Z,93.50
2018-12-01T05:14:43.212Z,93.50
2018-12-01T05:17:10.748Z,93.40
2018-12-01T05:19:38.230Z,93.50
2018-12-01T05:22:05.697Z,93.40
2018-12-01T05:24:33.210Z,93.50
2018-12-01T05:27:00.676Z,93.50
2018-12-01T05:29:28.388Z,93.50
2018-12-01T05:31:55.930Z,93.50
2018-12-01T05:34:23.628Z,93.50
2018-12-01T05:36:51.096Z,93.40
2018-12-01T05:39:18.664Z,93.40
2018-12-01T05:41:46.222Z,93.70
2018-12-01T05:44:13.817Z,93.40
2018-12-01T05:46:41.263Z,93.40
2018-12-01T05:49:08.750Z,93.40
2018-12-01T05:51:36.276Z,93.40
2018-12-01T05:54:03.810Z,93.40
2018-12-01T05:56:31.323Z,93.50
2018-12-01T05:58:58.824Z,93.50
2018-12-01T06:01:26.444Z,93.40
2018-12-01T06:03:54.007Z,93.40
2018-12-01T06:06:21.680Z,93.40
2018-12-01T06:08:49.100Z,93.40
2018-12-01T06:11:16.600Z,93.40
2018-12-01T06:13:44.027Z,93.40
2018-12-01T06:16:11.476Z,93.40
2018-12-01T06:18:38.984Z,93.40
2018-12-01T06:21:06.633Z,93.40
2018-12-01T06:23:34.149Z,93.50
2018-12-01T06:26:01.642Z,93.50
2018-12-01T06:28:29.100Z,93.50
2018-12-01T06:30:56.646Z,93.60
2018-12-01T06:33:24.092Z,93.60
2018-12-01T06:35:51.591Z,93.70
2018-12-01T06:38:19.040Z,93.70
2018-12-01T06:40:46.562Z,93.80
2018-12-01T06:43:14.190Z,93.60
2018-12-01T06:45:41.906Z,93.90
2018-12-01T06:48:09.404Z,93.90
2018-12-01T06:50:36.902Z,94.00
2018-12-01T06:53:05.066Z,94.10
2018-12-01T06:55:32.646Z,94.10
2018-12-01T06:58:00.158Z,94.10
2018-12-01T07:00:27.663Z,94.20
2018-12-01T07:02:55.840Z,94.20
2018-12-01T07:05:23.438Z,94.20
2018-12-01T07:07:50.923Z,94.20
2018-12-01T07:10:19.622Z,94.20
2018-12-01T07:12:51.510Z,94.30
2018-12-01T07:15:32.181Z,94.30
2018-12-01T07:17:59.739Z,94.70
2018-12-01T07:20:27.237Z,94.30
2018-12-01T07:22:54.707Z,94.30
2018-12-01T07:25:22.194Z,94.30
2018-12-01T07:27:50.057Z,94.20
2018-12-01T07:30:17.600Z,94.20
2018-12-01T07:32:45.258Z,94.20
2018-12-01T07:35:12.781Z,94.10
2018-12-01T07:37:40.790Z,94.10
2018-12-01T07:40:10.980Z,94.10
2018-12-01T07:42:38.722Z,94.10
2018-12-01T07:45:09.050Z,94.10
2018-12-01T07:47:36.576Z,94.10
2018-12-01T07:50:07.414Z,94.10
2018-12-01T07:52:34.904Z,94.10
2018-12-01T07:55:02.423Z,94.10
2018-12-01T07:57:29.961Z,94.10
2018-12-01T07:59:57.517Z,94.10
2018-12-01T08:02:25.101Z,94.10
2018-12-01T08:04:52.587Z,94.10
2018-12-01T08:07:20.176Z,94.00
2018-12-01T08:09:47.910Z,93.90
2018-12-01T08:12:15.401Z,93.90
2018-12-01T08:14:42.872Z,93.80
2018-12-01T08:17:10.431Z,93.80
2018-12-01T08:19:37.969Z,93.70
2018-12-01T08:22:05.705Z,93.70
2018-12-01T08:24:33.284Z,93.70
2018-12-01T08:27:00.888Z,93.60
2018-12-01T08:29:28.421Z,93.90
2018-12-01T08:31:55.930Z,93.40
2018-12-01T08:34:23.499Z,93.40
2018-12-01T08:36:51.000Z,93.30
2018-12-01T08:39:18.505Z,93.20
2018-12-01T08:41:46.177Z,93.10
2018-12-01T08:44:13.982Z,93.10
2018-12-01T08:46:41.497Z,93.10
2018-12-01T08:49:09.104Z,93.10
2018-12-01T08:51:36.669Z,93.00
2018-12-01T08:54:04.149Z,93.00
2018-12-01T08:56:31.759Z,92.90
2018-12-01T08:58:59.241Z,92.90
2018-12-01T09:01:27.077Z,92.80
2018-12-01T09:03:54.561Z,92.70
2018-12-01T09:06:22.067Z,92.60
2018-12-01T09:08:49.561Z,92.50
2018-12-01T09:11:17.189Z,92.40
2018-12-01T09:13:44.807Z,92.30
2018-12-01T09:16:12.307Z,92.20
2018-12-01T09:18:39.900Z,92.00
2018-12-01T09:21:07.349Z,91.90
2018-12-01T09:23:34.954Z,91.80
2018-12-01T09:26:02.436Z,91.50
2018-12-01T09:28:29.983Z,91.20
2018-12-01T09:30:57.761Z,91.00
2018-12-01T09:33:25.251Z,90.80
2018-12-01T09:35:52.715Z,90.60
2018-12-01T09:38:20.171Z,90.50
2018-12-01T09:40:47.729Z,90.20
2018-12-01T09:43:15.435Z,90.00
2018-12-01T09:45:42.933Z,89.90
2018-12-01T09:48:10.471Z,89.70
2018-12-01T09:50:38.183Z,89.30
2018-12-01T09:53:06.531Z,89.10
2018-12-01T09:55:34.057Z,88.40
2018-12-01T09:58:02.245Z,88.10
2018-12-01T10:00:31.486Z,87.10
2018-12-01T10:03:00.285Z,86.30
2018-12-01T10:05:27.863Z,84.40
2018-12-01T10:07:55.395Z,82.90
2018-12-01T10:10:23.385Z,82.00
2018-12-01T10:12:52.309Z,81.80
2018-12-01T10:15:21.808Z,81.50
2018-12-01T10:17:49.295Z,81.80
2018-12-01T10:20:20.213Z,82.20
2018-12-01T10:22:47.807Z,82.10
2018-12-01T10:25:16.439Z,81.70
2018-12-01T10:27:44.782Z,80.80
2018-12-01T10:30:15.641Z,80.60
2018-12-01T10:32:43.337Z,80.20
2018-12-01T10:35:12.689Z,80.00
2018-12-01T10:37:40.249Z,79.70
2018-12-01T10:40:09.315Z,79.80
2018-12-01T10:42:36.895Z,79.70
2018-12-01T10:45:08.166Z,79.30
2018-12-01T10:47:36.070Z,78.90
2018-12-01T10:50:04.895Z,79.10
2018-12-01T10:52:32.334Z,79.40
2018-12-01T10:54:59.958Z,79.70
2018-12-01T10:57:27.701Z,79.30
2018-12-01T10:59:55.284Z,79.20
2018-12-01T11:02:28.431Z,78.90
2018-12-01T11:04:55.972Z,78.50
2018-12-01T11:07:23.464Z,77.60
2018-12-01T11:09:51.024Z,76.90
2018-12-01T11:12:18.671Z,76.80
2018-12-01T11:14:46.282Z,76.90
2018-12-01T11:17:14.129Z,77.00
2018-12-01T11:19:41.745Z,77.00
2018-12-01T11:22:09.247Z,77.00
2018-12-01T11:24:36.842Z,76.70
2018-12-01T11:27:04.428Z,75.60
2018-12-01T11:29:32.062Z,75.00
2018-12-01T11:31:59.612Z,73.70
2018-12-01T11:34:27.334Z,72.20
2018-12-01T11:36:54.918Z,71.00
2018-12-01T11:39:22.450Z,70.10
2018-12-01T11:41:50.065Z,69.90
2018-12-01T11:44:17.599Z,69.20
2018-12-01T11:46:45.129Z,70.00
2018-12-01T11:49:12.657Z,70.10
2018-12-01T11:51:40.284Z,70.60
2018-12-01T11:54:07.825Z,70.80
2018-12-01T11:56:35.339Z,70.90
2018-12-01T11:59:02.906Z,70.70
2018-12-01T12:01:30.457Z,70.60
2018-12-01T12:03:58.055Z,70.20
2018-12-01T12:06:25.695Z,69.70
2018-12-01T12:08:53.247Z,69.20
2018-12-01T12:11:20.683Z,68.40
2018-12-01T12:13:48.222Z,67.70
2018-12-01T12:16:15.729Z,67.40
2018-12-01T12:18:43.357Z,67.00
2018-12-01T12:21:10.946Z,67.00
2018-12-01T12:23:38.577Z,66.70
2018-12-01T12:26:06.053Z,65.80
2018-12-01T12:28:33.577Z,62.50
2018-12-01T12:31:01.067Z,62.50
2018-12-01T12:33:28.645Z,61.60
2018-12-01T12:35:56.136Z,61.60
2018-12-01T12:38:23.645Z,62.50
2018-12-01T12:40:51.299Z,61.50
2018-12-01T12:43:18.969Z,60.90
2018-12-01T12:45:46.615Z,61.10
2018-12-01T12:48:14.107Z,61.20
2018-12-01T12:50:41.728Z,61.50
2018-12-01T12:53:09.263Z,61.40
2018-12-01T12:55:36.781Z,61.80
2018-12-01T12:58:05.197Z,61.90
2018-12-01T13:00:32.669Z,62.70
2018-12-01T13:03:02.367Z,62.90
2018-12-01T13:05:39.114Z,63.50
2018-12-01T13:08:07.352Z,64.10
2018-12-01T13:10:34.851Z,64.20
2018-12-01T13:13:02.362Z,64.20
2018-12-01T13:15:29.896Z,64.30
2018-12-01T13:17:57.426Z,64.90
2018-12-01T13:20:25.110Z,65.40
2018-12-01T13:22:56.044Z,65.60
2018-12-01T13:25:23.582Z,65.70
2018-12-01T13:28:24.250Z,66.00
2018-12-01T13:30:56.167Z,66.50
2018-12-01T13:33:24.391Z,66.30
2018-12-01T13:35:52.106Z,66.80
2018-12-01T13:38:19.703Z,67.10
2018-12-01T13:40:47.183Z,67.20
2018-12-01T13:43:14.746Z,67.10
2018-12-01T13:45:42.311Z,67.10
2018-12-01T13:48:09.908Z,67.30
2018-12-01T13:50:37.586Z,67.80
2018-12-01T13:53:06.861Z,68.20
2018-12-01T13:55:34.466Z,68.50
2018-12-01T13:58:02.050Z,68.70
2018-12-01T14:00:29.687Z,69.10
2018-12-01T14:02:57.212Z,69.40
2018-12-01T14:05:24.941Z,69.70
2018-12-01T14:07:52.804Z,69.90
2018-12-01T14:10:23.278Z,70.00
2018-12-01T14:12:52.515Z,70.20
2018-12-01T14:15:21.047Z,70.40
2018-12-01T14:17:49.675Z,70.60
2018-12-01T14:20:17.627Z,70.80
2018-12-01T14:22:46.258Z,71.20
2018-12-01T14:25:14.934Z,71.40
2018-12-01T14:27:44.719Z,71.70
2018-12-01T14:30:14.299Z,71.90
2018-12-01T14:32:41.963Z,72.30
2018-12-01T14:35:12.749Z,72.50
2018-12-01T14:37:40.407Z,72.70
2018-12-01T14:40:10.316Z,72.80
2018-12-01T14:42:37.961Z,72.90
2018-12-01T14:45:11.705Z,73.30
2018-12-01T14:47:39.290Z,73.40
2018-12-01T14:50:10.671Z,73.70
2018-12-01T14:52:38.300Z,73.80
2018-12-01T14:55:10.003Z,74.00
2018-12-01T14:57:37.601Z,74.20
2018-12-01T15:00:11.799Z,74.40
2018-12-01T15:02:39.424Z,74.60
2018-12-01T15:05:07.053Z,74.80
2018-12-01T15:07:34.591Z,74.90
2018-12-01T15:10:02.116Z,75.20
2018-12-01T15:12:29.810Z,75.60
2018-12-01T15:14:57.468Z,76.10
2018-12-01T15:17:25.029Z,76.60
2018-12-01T15:19:52.811Z,77.50
2018-12-01T15:22:20.552Z,78.30
2018-12-01T15:24:48.577Z,78.90
2018-12-01T15:27:16.565Z,79.70
2018-12-01T15:29:44.971Z,80.40
2018-12-01T15:32:12.879Z,81.30
2018-12-01T15:34:40.783Z,81.80
2018-12-01T15:37:08.565Z,82.30
2018-12-01T15:39:36.632Z,83.00
2018-12-01T15:42:04.139Z,83.90
2018-12-01T15:44:31.945Z,84.60
2018-12-01T15:46:59.755Z,85.60
2018-12-01T15:49:27.616Z,86.40
2018-12-01T15:51:56.509Z,86.90
2018-12-01T15:54:24.389Z,87.90
2018-12-01T15:56:52.103Z,88.60
2018-12-01T15:59:19.774Z,89.20
2018-12-01T16:01:47.366Z,89.70
2018-12-01T16:04:14.954Z,90.00
2018-12-01T16:06:42.720Z,90.30
2018-12-01T16:09:10.176Z,90.60
2018-12-01T16:11:37.771Z,90.70
2018-12-01T16:14:07.733Z,91.00
2018-12-01T16:16:35.805Z,91.10
2018-12-01T16:19:03.783Z,91.00
2018-12-01T16:21:31.248Z,90.90
2018-12-01T16:23:58.747Z,90.90
2018-12-01T16:26:26.224Z,90.80
2018-12-01T16:28:53.825Z,90.70
2018-12-01T16:31:21.299Z,90.50
2018-12-01T16:33:48.935Z,90.20
2018-12-01T16:36:16.443Z,90.10
2018-12-01T16:38:44.121Z,90.00
2018-12-01T16:41:18.927Z,90.10
2018-12-01T16:43:46.685Z,90.30
2018-12-01T16:46:14.283Z,90.40
2018-12-01T16:48:41.743Z,90.40
2018-12-01T16:51:09.269Z,90.50
2018-12-01T16:53:36.851Z,90.60
2018-12-01T16:56:04.658Z,90.60
2018-12-01T16:58:32.266Z,90.70
2018-12-01T17:00:59.775Z,90.70
2018-12-01T17:03:27.340Z,90.60
2018-12-01T17:05:56.407Z,90.50
2018-12-01T17:08:23.946Z,90.60
2018-12-01T17:10:51.971Z,90.70
2018-12-01T17:13:19.675Z,90.80
2018-12-01T17:15:47.190Z,90.90
2018-12-01T17:18:14.704Z,90.90
2018-12-01T17:20:42.265Z,91.00
2018-12-01T17:23:15.087Z,91.00
2018-12-01T17:25:42.650Z,91.00
2018-12-01T17:28:13.745Z,91.00
2018-12-01T17:30:41.230Z,91.10
2018-12-01T17:33:08.726Z,91.10
2018-12-01T17:35:36.571Z,91.20
2018-12-01T17:38:07.135Z,91.30
2018-12-01T17:41:16.198Z,91.40
2018-12-01T17:43:49.338Z,91.40
2018-12-01T17:46:16.818Z,91.60
2018-12-01T17:48:44.361Z,92.00
2018-12-01T17:51:11.885Z,92.20
2018-12-01T17:53:39.840Z,92.30
2018-12-01T17:56:07.404Z,92.50
2018-12-01T17:58:34.984Z,92.70
2018-12-01T18:01:02.538Z,92.90
2018-12-01T18:03:30.150Z,93.10
2018-12-01T18:05:57.676Z,93.20
2018-12-01T18:08:26.096Z,93.30
2018-12-01T18:10:54.062Z,93.30
2018-12-01T18:13:22.186Z,93.30
2018-12-01T18:15:49.747Z,93.30
2018-12-01T18:18:17.542Z,93.20
2018-12-01T18:20:45.174Z,93.20
2018-12-01T18:23:14.518Z,93.10
2018-12-01T18:25:43.997Z,93.10
2018-12-01T18:28:13.772Z,93.10
2018-12-01T18:30:41.470Z,93.00
2018-12-01T18:33:14.379Z,92.90
2018-12-01T18:35:42.353Z,92.90
2018-12-01T18:38:10.439Z,93.20
2018-12-01T18:40:38.086Z,92.80
2018-12-01T18:43:06.487Z,92.70
2018-12-01T18:45:34.113Z,92.70
2018-12-01T18:48:01.639Z,92.60
2018-12-01T18:50:29.191Z,92.60
2018-12-01T18:53:00.032Z,92.60
2018-12-01T18:55:29.947Z,92.60
2018-12-01T18:57:57.461Z,92.60
2018-12-01T19:00:29.874Z,92.60
2018-12-01T19:02:57.349Z,92.50
2018-12-01T19:05:24.840Z,92.50
2018-12-01T19:07:52.297Z,92.40
2018-12-01T19:10:19.854Z,92.40
2018-12-01T19:12:47.424Z,92.40
2018-12-01T19:15:16.679Z,92.30
2018-12-01T19:17:45.660Z,92.20
2018-12-01T19:20:17.393Z,92.20
2018-12-01T19:22:46.054Z,92.10
2018-12-01T19:25:17.821Z,92.10
2018-12-01T19:27:45.599Z,92.00
2018-12-01T19:30:15.681Z,91.90
2018-12-01T19:32:44.999Z,91.80
2018-12-01T19:35:13.615Z,91.80
2018-12-01T19:37:41.414Z,91.70
2018-12-01T19:40:13.745Z,91.70
2018-12-01T19:42:41.246Z,91.60
2018-12-01T19:45:09.175Z,91.60
2018-12-01T19:47:36.694Z,91.50
2018-12-01T19:50:09.487Z,91.40
2018-12-01T19:52:37.165Z,91.40
2018-12-01T19:55:07.111Z,91.30
2018-12-01T19:57:34.815Z,91.10
2018-12-01T20:00:02.359Z,91.20
2018-12-01T20:02:29.988Z,91.10
2018-12-01T20:04:57.527Z,91.10
2018-12-01T20:07:25.020Z,90.90
2018-12-01T20:09:52.535Z,90.70
2018-12-01T20:12:20.018Z,90.50
2018-12-01T20:14:47.488Z,90.20
2018-12-01T20:17:15.039Z,89.20
2018-12-01T20:19:42.679Z,87.80
2018-12-01T20:22:10.169Z,87.30
2018-12-01T20:24:37.644Z,86.90
2018-12-01T20:27:05.954Z,86.40
2018-12-01T20:29:33.536Z,86.10
2018-12-01T20:32:01.045Z,85.80
2018-12-01T20:34:28.682Z,85.60
2018-12-01T20:37:00.498Z,85.40
2018-12-01T20:39:31.894Z,85.20
2018-12-01T20:41:59.407Z,85.00
2018-12-01T20:44:26.988Z,84.80
2018-12-01T20:46:55.304Z,84.60
2018-12-01T20:49:22.957Z,84.30
2018-12-01T20:51:50.546Z,84.20
2018-12-01T20:54:31.218Z,84.30
2018-12-01T20:57:02.631Z,84.40
2018-12-01T20:59:30.135Z,84.40
2018-12-01T21:01:57.749Z,84.40
2018-12-01T21:04:25.396Z,84.40
2018-12-01T21:06:53.078Z,84.10
2018-12-01T21:09:20.666Z,84.00
2018-12-01T21:11:48.198Z,84.10
2018-12-01T21:14:15.698Z,84.10
2018-12-01T21:16:43.332Z,84.20
2018-12-01T21:19:10.864Z,84.10
2018-12-01T21:21:38.371Z,84.00
2018-12-01T21:24:06.545Z,84.10
2018-12-01T21:26:34.069Z,84.00
2018-12-01T21:29:01.555Z,84.10
2018-12-01T21:31:29.204Z,84.10
2018-12-01T21:33:56.901Z,84.10
2018-12-01T21:36:24.489Z,84.20
2018-12-01T21:38:52.198Z,84.40
2018-12-01T21:41:19.798Z,84.40
2018-12-01T21:43:47.381Z,85.10
2018-12-01T21:46:14.936Z,84.40
2018-12-01T21:48:42.421Z,84.40
2018-12-01T21:51:09.960Z,84.20
2018-12-01T21:53:37.522Z,84.20
2018-12-01T21:56:05.052Z,84.10
2018-12-01T21:58:32.848Z,84.10
2018-12-01T22:01:01.055Z,84.40
2018-12-01T22:03:29.469Z,84.10
2018-12-01T22:05:59.045Z,84.10
2018-12-01T22:08:27.217Z,84.90
2018-12-01T22:10:56.117Z,84.10
2018-12-01T22:13:23.632Z,84.20
2018-12-01T22:15:51.161Z,84.20
2018-12-01T22:18:19.002Z,84.20
2018-12-01T22:20:46.474Z,83.60
2018-12-01T22:23:14.005Z,84.20
2018-12-01T22:25:41.812Z,84.20
2018-12-01T22:28:10.664Z,84.00
2018-12-01T22:30:38.356Z,84.00
2018-12-01T22:33:13.126Z,84.10
2018-12-01T22:35:42.162Z,84.00
2018-12-01T22:38:09.783Z,84.00
2018-12-01T22:40:40.883Z,84.10
2018-12-01T22:43:08.437Z,84.20
2018-12-01T22:45:35.921Z,84.00
2018-12-01T22:48:07.634Z,83.90
2018-12-01T22:50:35.155Z,84.00
2018-12-01T22:53:02.699Z,84.00
2018-12-01T22:55:31.632Z,83.80
2018-12-01T22:58:07.594Z,83.70
2018-12-01T23:00:40.271Z,83.80
2018-12-01T23:03:08.345Z,83.70
2018-12-01T23:05:35.817Z,83.60
2018-12-01T23:08:03.608Z,83.70
2018-12-01T23:10:31.137Z,83.80
2018-12-01T23:12:58.651Z,83.80
2018-12-01T23:15:26.280Z,83.70
2018-12-01T23:17:53.777Z,83.80
2018-12-01T23:20:22.266Z,83.90
2018-12-01T23:22:50.507Z,84.00
2018-12-01T23:25:18.115Z,84.20
2018-12-01T23:27:45.665Z,84.40
2018-12-01T23:30:15.674Z,84.70
2018-12-01T23:32:43.788Z,85.00
2018-12-01T23:35:11.250Z,85.20
2018-12-01T23:37:38.689Z,85.30
2018-12-01T23:40:09.450Z,85.50
2018-12-01T23:42:37.200Z,85.60
2018-12-01T23:45:10.659Z,85.60
2018-12-01T23:47:38.603Z,85.60
2018-12-01T23:50:11.719Z,85.70
2018-12-01T23:52:39.227Z,85.60
2018-12-01T23:55:09.012Z,85.60
2018-12-01T23:57:36.479Z,85.70
